sensor_id;sensor_type;location;lat;lon;timestamp;P1;durP1;ratioP1;P2;durP2;ratioP2
10711;SDS011;5407;51.234;6.804;2023-03-03T00:01:05;5.28;;;4.75;;
10711;SDS011;5407;51.234;6.804;2023-03-03T00:03:32;5.18;;;4.68;;
10711;SDS011;5407;51.234;6.804;2023-03-03T00:06:00;4.60;;;4.20;;
10711;SDS011;5407;51.234;6.804;2023-03-03T00:08:29;5.15;;;4.65;;
10711;SDS011;5407;51.234;6.804;2023-03-03T00:10:57;5.25;;;4.82;;
10711;SDS011;5407;51.234;6.804;2023-03-03T00:13:26;4.50;;;4.10;;
10711;SDS011;5407;51.234;6.804;2023-03-03T00:15:53;5.22;;;4.72;;
10711;SDS011;5407;51.234;6.804;2023-03-03T00:18:36;4.97;;;4.47;;
10711;SDS011;5407;51.234;6.804;2023-03-03T00:21:13;6.22;;;5.53;;
10711;SDS011;5407;51.234;6.804;2023-03-03T00:23:47;5.30;;;4.80;;
10711;SDS011;5407;51.234;6.804;2023-03-03T00:26:15;5.30;;;4.80;;
10711;SDS011;5407;51.234;6.804;2023-03-03T00:28:48;5.38;;;4.88;;
10711;SDS011;5407;51.234;6.804;2023-03-03T00:31:16;5.53;;;5.00;;
10711;SDS011;5407;51.234;6.804;2023-03-03T00:33:46;5.10;;;4.60;;
10711;SDS011;5407;51.234;6.804;2023-03-03T00:36:33;5.22;;;4.82;;
10711;SDS011;5407;51.234;6.804;2023-03-03T00:39:19;5.30;;;4.80;;
10711;SDS011;5407;51.234;6.804;2023-03-03T00:41:51;5.35;;;4.85;;
10711;SDS011;5407;51.234;6.804;2023-03-03T00:44:34;5.10;;;4.60;;
10711;SDS011;5407;51.234;6.804;2023-03-03T00:47:12;4.85;;;4.45;;
10711;SDS011;5407;51.234;6.804;2023-03-03T00:49:49;5.93;;;5.38;;
10711;SDS011;5407;51.234;6.804;2023-03-03T00:52:17;5.80;;;5.30;;
10711;SDS011;5407;51.234;6.804;2023-03-03T00:54:45;6.65;;;5.32;;
10711;SDS011;5407;51.234;6.804;2023-03-03T00:57:12;6.00;;;5.30;;
10711;SDS011;5407;51.234;6.804;2023-03-03T00:59:40;5.53;;;5.03;;
10711;SDS011;5407;51.234;6.804;2023-03-03T01:02:07;8.95;;;4.60;;
10711;SDS011;5407;51.234;6.804;2023-03-03T01:04:35;5.53;;;5.05;;
10711;SDS011;5407;51.234;6.804;2023-03-03T01:07:02;5.82;;;5.32;;
10711;SDS011;5407;51.234;6.804;2023-03-03T01:09:30;7.07;;;5.15;;
10711;SDS011;5407;51.234;6.804;2023-03-03T01:11:58;5.82;;;5.22;;
10711;SDS011;5407;51.234;6.804;2023-03-03T01:14:26;5.43;;;4.93;;
10711;SDS011;5407;51.234;6.804;2023-03-03T01:16:52;5.28;;;4.85;;
10711;SDS011;5407;51.234;6.804;2023-03-03T01:19:19;5.53;;;5.03;;
10711;SDS011;5407;51.234;6.804;2023-03-03T01:21:46;4.72;;;4.32;;
10711;SDS011;5407;51.234;6.804;2023-03-03T01:24:13;5.70;;;5.20;;
10711;SDS011;5407;51.234;6.804;2023-03-03T01:26:41;5.47;;;5.03;;
10711;SDS011;5407;51.234;6.804;2023-03-03T01:29:08;5.80;;;5.30;;
10711;SDS011;5407;51.234;6.804;2023-03-03T01:31:35;5.80;;;5.30;;
10711;SDS011;5407;51.234;6.804;2023-03-03T01:34:02;5.00;;;4.57;;
10711;SDS011;5407;51.234;6.804;2023-03-03T01:36:29;5.40;;;4.90;;
10711;SDS011;5407;51.234;6.804;2023-03-03T01:38:56;5.38;;;4.88;;
10711;SDS011;5407;51.234;6.804;2023-03-03T01:41:24;5.93;;;5.32;;
10711;SDS011;5407;51.234;6.804;2023-03-03T01:43:54;5.82;;;5.32;;
10711;SDS011;5407;51.234;6.804;2023-03-03T01:49:13;5.75;;;5.25;;
10711;SDS011;5407;51.234;6.804;2023-03-03T01:51:44;5.70;;;5.20;;
10711;SDS011;5407;51.234;6.804;2023-03-03T01:54:15;5.60;;;5.10;;
10711;SDS011;5407;51.234;6.804;2023-03-03T01:56:45;5.10;;;4.70;;
10711;SDS011;5407;51.234;6.804;2023-03-03T01:59:14;5.72;;;5.22;;
10711;SDS011;5407;51.234;6.804;2023-03-03T02:01:45;5.93;;;5.43;;
10711;SDS011;5407;51.234;6.804;2023-03-03T02:04:13;5.88;;;5.38;;
10711;SDS011;5407;51.234;6.804;2023-03-03T02:06:42;5.80;;;5.30;;
10711;SDS011;5407;51.234;6.804;2023-03-03T02:09:14;5.43;;;4.93;;
10711;SDS011;5407;51.234;6.804;2023-03-03T02:11:48;6.07;;;5.57;;
10711;SDS011;5407;51.234;6.804;2023-03-03T02:14:19;6.13;;;5.53;;
10711;SDS011;5407;51.234;6.804;2023-03-03T02:16:46;5.90;;;5.38;;
10711;SDS011;5407;51.234;6.804;2023-03-03T02:19:16;5.82;;;5.32;;
10711;SDS011;5407;51.234;6.804;2023-03-03T02:21:49;5.70;;;5.20;;
10711;SDS011;5407;51.234;6.804;2023-03-03T02:24:20;5.95;;;5.45;;
10711;SDS011;5407;51.234;6.804;2023-03-03T02:26:53;5.97;;;5.43;;
10711;SDS011;5407;51.234;6.804;2023-03-03T02:29:20;5.72;;;5.22;;
10711;SDS011;5407;51.234;6.804;2023-03-03T02:31:48;5.80;;;5.30;;
10711;SDS011;5407;51.234;6.804;2023-03-03T02:34:14;6.07;;;5.53;;
10711;SDS011;5407;51.234;6.804;2023-03-03T02:36:42;5.75;;;5.25;;
10711;SDS011;5407;51.234;6.804;2023-03-03T02:39:10;6.40;;;5.80;;
10711;SDS011;5407;51.234;6.804;2023-03-03T02:41:45;5.90;;;5.35;;
10711;SDS011;5407;51.234;6.804;2023-03-03T02:44:19;5.93;;;5.43;;
10711;SDS011;5407;51.234;6.804;2023-03-03T02:46:48;6.30;;;5.70;;
10711;SDS011;5407;51.234;6.804;2023-03-03T02:49:18;6.03;;;5.43;;
10711;SDS011;5407;51.234;6.804;2023-03-03T02:51:46;6.97;;;6.38;;
10711;SDS011;5407;51.234;6.804;2023-03-03T02:54:14;6.18;;;5.57;;
10711;SDS011;5407;51.234;6.804;2023-03-03T02:56:42;6.00;;;5.50;;
10711;SDS011;5407;51.234;6.804;2023-03-03T02:59:09;6.20;;;5.60;;
10711;SDS011;5407;51.234;6.804;2023-03-03T03:01:43;6.18;;;5.65;;
10711;SDS011;5407;51.234;6.804;2023-03-03T03:04:15;6.40;;;5.80;;
10711;SDS011;5407;51.234;6.804;2023-03-03T03:06:46;6.38;;;5.85;;
10711;SDS011;5407;51.234;6.804;2023-03-03T03:09:15;5.78;;;5.28;;
10711;SDS011;5407;51.234;6.804;2023-03-03T03:11:44;6.18;;;5.68;;
10711;SDS011;5407;51.234;6.804;2023-03-03T03:14:12;6.60;;;6.00;;
10711;SDS011;5407;51.234;6.804;2023-03-03T03:16:43;6.65;;;6.03;;
10711;SDS011;5407;51.234;6.804;2023-03-03T03:19:10;6.40;;;5.80;;
10711;SDS011;5407;51.234;6.804;2023-03-03T03:21:38;7.13;;;6.43;;
10711;SDS011;5407;51.234;6.804;2023-03-03T03:24:06;7.15;;;6.50;;
10711;SDS011;5407;51.234;6.804;2023-03-03T03:26:35;7.07;;;6.38;;
10711;SDS011;5407;51.234;6.804;2023-03-03T03:29:03;7.28;;;6.55;;
10711;SDS011;5407;51.234;6.804;2023-03-03T03:31:30;7.40;;;6.70;;
10711;SDS011;5407;51.234;6.804;2023-03-03T03:33:58;7.43;;;6.72;;
10711;SDS011;5407;51.234;6.804;2023-03-03T03:36:27;7.47;;;6.78;;
10711;SDS011;5407;51.234;6.804;2023-03-03T03:38:54;7.45;;;6.75;;
10711;SDS011;5407;51.234;6.804;2023-03-03T03:41:21;7.00;;;6.40;;
10711;SDS011;5407;51.234;6.804;2023-03-03T03:43:48;7.90;;;7.20;;
10711;SDS011;5407;51.234;6.804;2023-03-03T03:46:15;7.90;;;7.13;;
10711;SDS011;5407;51.234;6.804;2023-03-03T03:48:42;7.80;;;7.00;;
10711;SDS011;5407;51.234;6.804;2023-03-03T03:51:13;8.25;;;7.45;;
10711;SDS011;5407;51.234;6.804;2023-03-03T03:53:40;8.20;;;7.38;;
10711;SDS011;5407;51.234;6.804;2023-03-03T03:56:07;8.07;;;7.28;;
10711;SDS011;5407;51.234;6.804;2023-03-03T03:58:34;8.38;;;7.50;;
10711;SDS011;5407;51.234;6.804;2023-03-03T04:01:06;7.90;;;7.20;;
10711;SDS011;5407;51.234;6.804;2023-03-03T04:03:39;8.27;;;7.47;;
10711;SDS011;5407;51.234;6.804;2023-03-03T04:06:10;7.53;;;6.82;;
10711;SDS011;5407;51.234;6.804;2023-03-03T04:08:38;8.10;;;7.30;;
10711;SDS011;5407;51.234;6.804;2023-03-03T04:11:07;7.97;;;7.18;;
10711;SDS011;5407;51.234;6.804;2023-03-03T04:13:33;8.27;;;7.43;;
10711;SDS011;5407;51.234;6.804;2023-03-03T04:16:03;7.95;;;7.18;;
10711;SDS011;5407;51.234;6.804;2023-03-03T04:18:31;7.82;;;7.13;;
10711;SDS011;5407;51.234;6.804;2023-03-03T04:20:58;7.70;;;6.90;;
10711;SDS011;5407;51.234;6.804;2023-03-03T04:23:26;7.90;;;7.03;;
10711;SDS011;5407;51.234;6.804;2023-03-03T04:25:54;7.93;;;7.13;;
10711;SDS011;5407;51.234;6.804;2023-03-03T04:28:21;8.77;;;7.90;;
10711;SDS011;5407;51.234;6.804;2023-03-03T04:30:50;7.93;;;7.13;;
10711;SDS011;5407;51.234;6.804;2023-03-03T04:33:18;8.32;;;7.47;;
10711;SDS011;5407;51.234;6.804;2023-03-03T04:35:46;8.60;;;7.80;;
10711;SDS011;5407;51.234;6.804;2023-03-03T04:38:14;7.97;;;7.18;;
10711;SDS011;5407;51.234;6.804;2023-03-03T04:40:41;8.25;;;7.45;;
10711;SDS011;5407;51.234;6.804;2023-03-03T04:43:11;8.68;;;7.78;;
10711;SDS011;5407;51.234;6.804;2023-03-03T04:45:39;8.38;;;7.57;;
10711;SDS011;5407;51.234;6.804;2023-03-03T04:48:07;9.15;;;7.65;;
10711;SDS011;5407;51.234;6.804;2023-03-03T04:50:34;8.45;;;7.65;;
10711;SDS011;5407;51.234;6.804;2023-03-03T04:53:02;9.00;;;7.80;;
10711;SDS011;5407;51.234;6.804;2023-03-03T04:55:29;9.27;;;8.38;;
10711;SDS011;5407;51.234;6.804;2023-03-03T04:57:56;8.77;;;7.88;;
10711;SDS011;5407;51.234;6.804;2023-03-03T05:00:25;9.43;;;8.40;;
10711;SDS011;5407;51.234;6.804;2023-03-03T05:02:52;8.80;;;7.90;;
10711;SDS011;5407;51.234;6.804;2023-03-03T05:05:19;9.10;;;8.20;;
10711;SDS011;5407;51.234;6.804;2023-03-03T05:07:45;9.32;;;8.25;;
10711;SDS011;5407;51.234;6.804;2023-03-03T05:10:12;9.48;;;8.48;;
10711;SDS011;5407;51.234;6.804;2023-03-03T05:12:39;9.55;;;8.55;;
10711;SDS011;5407;51.234;6.804;2023-03-03T05:15:06;9.23;;;8.20;;
10711;SDS011;5407;51.234;6.804;2023-03-03T05:17:35;8.95;;;8.05;;
10711;SDS011;5407;51.234;6.804;2023-03-03T05:20:02;8.98;;;8.07;;
10711;SDS011;5407;51.234;6.804;2023-03-03T05:22:32;9.20;;;8.27;;
10711;SDS011;5407;51.234;6.804;2023-03-03T05:24:59;8.88;;;7.95;;
10711;SDS011;5407;51.234;6.804;2023-03-03T05:27:26;9.10;;;8.20;;
10711;SDS011;5407;51.234;6.804;2023-03-03T05:29:53;9.00;;;8.10;;
10711;SDS011;5407;51.234;6.804;2023-03-03T05:32:20;9.30;;;8.30;;
10711;SDS011;5407;51.234;6.804;2023-03-03T05:34:48;8.82;;;7.93;;
10711;SDS011;5407;51.234;6.804;2023-03-03T05:37:15;9.75;;;8.85;;
10711;SDS011;5407;51.234;6.804;2023-03-03T05:39:42;8.88;;;7.97;;
10711;SDS011;5407;51.234;6.804;2023-03-03T05:42:10;8.50;;;7.70;;
10711;SDS011;5407;51.234;6.804;2023-03-03T05:44:38;8.50;;;7.60;;
10711;SDS011;5407;51.234;6.804;2023-03-03T05:47:04;7.70;;;7.00;;
10711;SDS011;5407;51.234;6.804;2023-03-03T05:49:32;9.02;;;8.13;;
10711;SDS011;5407;51.234;6.804;2023-03-03T05:52:00;8.50;;;7.60;;
10711;SDS011;5407;51.234;6.804;2023-03-03T05:54:27;8.73;;;7.93;;
10711;SDS011;5407;51.234;6.804;2023-03-03T05:56:54;8.10;;;7.30;;
10711;SDS011;5407;51.234;6.804;2023-03-03T05:59:22;9.25;;;8.27;;
10711;SDS011;5407;51.234;6.804;2023-03-03T06:01:48;8.10;;;7.35;;
10711;SDS011;5407;51.234;6.804;2023-03-03T06:04:16;8.85;;;7.95;;
10711;SDS011;5407;51.234;6.804;2023-03-03T06:06:42;9.00;;;8.10;;
10711;SDS011;5407;51.234;6.804;2023-03-03T06:09:11;8.60;;;7.70;;
10711;SDS011;5407;51.234;6.804;2023-03-03T06:11:37;9.15;;;7.93;;
10711;SDS011;5407;51.234;6.804;2023-03-03T06:14:04;9.05;;;8.15;;
10711;SDS011;5407;51.234;6.804;2023-03-03T06:16:31;9.55;;;8.55;;
10711;SDS011;5407;51.234;6.804;2023-03-03T06:18:58;9.52;;;8.05;;
10711;SDS011;5407;51.234;6.804;2023-03-03T06:21:25;11.98;;;8.55;;
10711;SDS011;5407;51.234;6.804;2023-03-03T06:23:52;10.00;;;7.50;;
10711;SDS011;5407;51.234;6.804;2023-03-03T06:26:20;9.70;;;8.18;;
10711;SDS011;5407;51.234;6.804;2023-03-03T06:28:47;7.97;;;7.18;;
10711;SDS011;5407;51.234;6.804;2023-03-03T06:31:18;8.50;;;7.70;;
10711;SDS011;5407;51.234;6.804;2023-03-03T06:33:45;8.30;;;7.50;;
10711;SDS011;5407;51.234;6.804;2023-03-03T06:36:11;8.40;;;7.60;;
10711;SDS011;5407;51.234;6.804;2023-03-03T06:38:38;8.65;;;7.75;;
10711;SDS011;5407;51.234;6.804;2023-03-03T06:41:05;9.07;;;7.25;;
10711;SDS011;5407;51.234;6.804;2023-03-03T06:43:34;8.82;;;7.93;;
10711;SDS011;5407;51.234;6.804;2023-03-03T06:46:01;8.18;;;7.40;;
10711;SDS011;5407;51.234;6.804;2023-03-03T06:48:28;8.73;;;7.82;;
10711;SDS011;5407;51.234;6.804;2023-03-03T06:50:55;8.48;;;7.15;;
10711;SDS011;5407;51.234;6.804;2023-03-03T06:53:22;8.60;;;7.78;;
10711;SDS011;5407;51.234;6.804;2023-03-03T06:55:51;8.50;;;7.43;;
10711;SDS011;5407;51.234;6.804;2023-03-03T06:58:20;8.25;;;7.10;;
10711;SDS011;5407;51.234;6.804;2023-03-03T07:00:51;8.13;;;7.30;;
10711;SDS011;5407;51.234;6.804;2023-03-03T07:03:21;8.65;;;7.47;;
10711;SDS011;5407;51.234;6.804;2023-03-03T07:05:50;8.95;;;8.02;;
10711;SDS011;5407;51.234;6.804;2023-03-03T07:08:18;8.95;;;7.68;;
10711;SDS011;5407;51.234;6.804;2023-03-03T07:10:48;7.88;;;7.07;;
10711;SDS011;5407;51.234;6.804;2023-03-03T07:13:18;8.27;;;7.45;;
10711;SDS011;5407;51.234;6.804;2023-03-03T07:15:47;8.02;;;7.22;;
10711;SDS011;5407;51.234;6.804;2023-03-03T07:18:24;8.10;;;7.30;;
10711;SDS011;5407;51.234;6.804;2023-03-03T07:21:11;7.75;;;6.95;;
10711;SDS011;5407;51.234;6.804;2023-03-03T07:23:41;7.65;;;6.85;;
10711;SDS011;5407;51.234;6.804;2023-03-03T07:26:11;7.95;;;7.15;;
10711;SDS011;5407;51.234;6.804;2023-03-03T07:28:40;8.00;;;7.20;;
10711;SDS011;5407;51.234;6.804;2023-03-03T07:31:28;8.05;;;7.25;;
10711;SDS011;5407;51.234;6.804;2023-03-03T07:34:01;7.75;;;6.95;;
10711;SDS011;5407;51.234;6.804;2023-03-03T07:36:39;8.80;;;7.50;;
10711;SDS011;5407;51.234;6.804;2023-03-03T07:39:13;8.05;;;7.25;;
10711;SDS011;5407;51.234;6.804;2023-03-03T07:41:53;7.95;;;7.15;;
10711;SDS011;5407;51.234;6.804;2023-03-03T07:44:26;8.73;;;7.10;;
10711;SDS011;5407;51.234;6.804;2023-03-03T07:47:00;7.47;;;6.63;;
10711;SDS011;5407;51.234;6.804;2023-03-03T07:49:46;8.48;;;7.32;;
10711;SDS011;5407;51.234;6.804;2023-03-03T07:52:20;7.65;;;6.90;;
10711;SDS011;5407;51.234;6.804;2023-03-03T07:54:53;8.23;;;7.43;;
10711;SDS011;5407;51.234;6.804;2023-03-03T07:57:23;8.13;;;7.25;;
10711;SDS011;5407;51.234;6.804;2023-03-03T07:59:52;8.00;;;7.20;;
10711;SDS011;5407;51.234;6.804;2023-03-03T08:02:33;7.97;;;7.03;;
10711;SDS011;5407;51.234;6.804;2023-03-03T08:07:55;8.10;;;7.30;;
10711;SDS011;5407;51.234;6.804;2023-03-03T08:10:30;7.70;;;6.90;;
10711;SDS011;5407;51.234;6.804;2023-03-03T08:13:07;7.90;;;6.80;;
10711;SDS011;5407;51.234;6.804;2023-03-03T08:15:38;9.77;;;7.30;;
10711;SDS011;5407;51.234;6.804;2023-03-03T08:18:10;8.18;;;7.20;;
10711;SDS011;5407;51.234;6.804;2023-03-03T08:20:48;8.68;;;7.35;;
10711;SDS011;5407;51.234;6.804;2023-03-03T08:23:18;8.48;;;7.35;;
10711;SDS011;5407;51.234;6.804;2023-03-03T08:25:46;9.43;;;7.35;;
10711;SDS011;5407;51.234;6.804;2023-03-03T08:28:14;10.52;;;8.07;;
10711;SDS011;5407;51.234;6.804;2023-03-03T08:30:41;9.65;;;8.55;;
10711;SDS011;5407;51.234;6.804;2023-03-03T08:33:09;9.70;;;7.30;;
10711;SDS011;5407;51.234;6.804;2023-03-03T08:35:37;9.52;;;7.43;;
10711;SDS011;5407;51.234;6.804;2023-03-03T08:38:07;8.45;;;7.63;;
10711;SDS011;5407;51.234;6.804;2023-03-03T08:40:35;10.13;;;7.80;;
10711;SDS011;5407;51.234;6.804;2023-03-03T08:43:02;8.13;;;7.32;;
10711;SDS011;5407;51.234;6.804;2023-03-03T08:45:29;11.93;;;7.85;;
10711;SDS011;5407;51.234;6.804;2023-03-03T08:47:57;9.25;;;7.60;;
10711;SDS011;5407;51.234;6.804;2023-03-03T08:50:24;10.70;;;8.00;;
10711;SDS011;5407;51.234;6.804;2023-03-03T08:52:51;12.73;;;8.48;;
10711;SDS011;5407;51.234;6.804;2023-03-03T08:55:19;14.43;;;8.07;;
10711;SDS011;5407;51.234;6.804;2023-03-03T08:57:47;14.55;;;7.82;;
10711;SDS011;5407;51.234;6.804;2023-03-03T09:00:14;11.38;;;7.95;;
10711;SDS011;5407;51.234;6.804;2023-03-03T09:02:42;16.02;;;8.55;;
10711;SDS011;5407;51.234;6.804;2023-03-03T09:05:09;11.18;;;8.27;;
10711;SDS011;5407;51.234;6.804;2023-03-03T09:07:37;19.25;;;8.65;;
10711;SDS011;5407;51.234;6.804;2023-03-03T09:10:05;12.68;;;8.35;;
10711;SDS011;5407;51.234;6.804;2023-03-03T09:12:35;12.18;;;8.23;;
10711;SDS011;5407;51.234;6.804;2023-03-03T09:15:10;9.45;;;8.23;;
10711;SDS011;5407;51.234;6.804;2023-03-03T09:17:40;11.20;;;8.50;;
10711;SDS011;5407;51.234;6.804;2023-03-03T09:20:18;11.35;;;8.88;;
10711;SDS011;5407;51.234;6.804;2023-03-03T09:22:50;16.60;;;8.82;;
10711;SDS011;5407;51.234;6.804;2023-03-03T09:25:21;13.88;;;7.97;;
10711;SDS011;5407;51.234;6.804;2023-03-03T09:27:53;12.88;;;8.45;;
10711;SDS011;5407;51.234;6.804;2023-03-03T09:30:29;11.90;;;8.27;;
10711;SDS011;5407;51.234;6.804;2023-03-03T09:33:15;11.82;;;8.35;;
10711;SDS011;5407;51.234;6.804;2023-03-03T09:35:48;10.15;;;8.40;;
10711;SDS011;5407;51.234;6.804;2023-03-03T09:38:21;15.02;;;9.20;;
10711;SDS011;5407;51.234;6.804;2023-03-03T09:41:01;12.30;;;8.63;;
10711;SDS011;5407;51.234;6.804;2023-03-03T09:46:59;12.68;;;8.65;;
10711;SDS011;5407;51.234;6.804;2023-03-03T09:49:40;13.95;;;8.85;;
10711;SDS011;5407;51.234;6.804;2023-03-03T09:52:24;11.57;;;8.65;;
10711;SDS011;5407;51.234;6.804;2023-03-03T09:55:04;12.40;;;8.77;;
10711;SDS011;5407;51.234;6.804;2023-03-03T09:57:44;13.32;;;8.38;;
10711;SDS011;5407;51.234;6.804;2023-03-03T10:00:40;13.57;;;9.02;;
10711;SDS011;5407;51.234;6.804;2023-03-03T10:06:12;11.20;;;7.88;;
10711;SDS011;5407;51.234;6.804;2023-03-03T10:08:57;11.68;;;7.82;;
10711;SDS011;5407;51.234;6.804;2023-03-03T10:11:37;9.93;;;7.88;;
10711;SDS011;5407;51.234;6.804;2023-03-03T10:14:33;9.95;;;7.95;;
10711;SDS011;5407;51.234;6.804;2023-03-03T10:17:22;9.40;;;7.93;;
10711;SDS011;5407;51.234;6.804;2023-03-03T10:20:03;8.90;;;7.38;;
10711;SDS011;5407;51.234;6.804;2023-03-03T10:22:40;14.43;;;7.95;;
10711;SDS011;5407;51.234;6.804;2023-03-03T10:25:21;22.55;;;8.02;;
10711;SDS011;5407;51.234;6.804;2023-03-03T10:28:00;17.52;;;9.05;;
10711;SDS011;5407;51.234;6.804;2023-03-03T10:30:39;15.95;;;8.85;;
10711;SDS011;5407;51.234;6.804;2023-03-03T10:33:16;18.15;;;8.95;;
10711;SDS011;5407;51.234;6.804;2023-03-03T10:36:00;14.05;;;8.05;;
10711;SDS011;5407;51.234;6.804;2023-03-03T10:38:41;13.70;;;8.32;;
10711;SDS011;5407;51.234;6.804;2023-03-03T10:41:23;15.82;;;8.52;;
10711;SDS011;5407;51.234;6.804;2023-03-03T10:44:02;12.57;;;7.35;;
10711;SDS011;5407;51.234;6.804;2023-03-03T10:46:49;26.88;;;8.18;;
10711;SDS011;5407;51.234;6.804;2023-03-03T10:49:34;13.65;;;8.07;;
10711;SDS011;5407;51.234;6.804;2023-03-03T10:52:21;13.35;;;8.07;;
10711;SDS011;5407;51.234;6.804;2023-03-03T10:55:18;12.55;;;8.02;;
10711;SDS011;5407;51.234;6.804;2023-03-03T10:57:57;13.43;;;8.18;;
10711;SDS011;5407;51.234;6.804;2023-03-03T11:00:34;13.85;;;8.27;;
10711;SDS011;5407;51.234;6.804;2023-03-03T11:03:13;18.38;;;7.70;;
10711;SDS011;5407;51.234;6.804;2023-03-03T11:06:09;10.73;;;7.70;;
10711;SDS011;5407;51.234;6.804;2023-03-03T11:08:45;15.25;;;7.35;;
10711;SDS011;5407;51.234;6.804;2023-03-03T11:11:17;8.68;;;7.43;;
10711;SDS011;5407;51.234;6.804;2023-03-03T11:13:50;11.50;;;7.55;;
10711;SDS011;5407;51.234;6.804;2023-03-03T11:16:30;13.60;;;7.82;;
10711;SDS011;5407;51.234;6.804;2023-03-03T11:19:10;10.15;;;7.35;;
10711;SDS011;5407;51.234;6.804;2023-03-03T11:21:50;8.77;;;7.40;;
10711;SDS011;5407;51.234;6.804;2023-03-03T11:24:28;9.80;;;7.72;;
10711;SDS011;5407;51.234;6.804;2023-03-03T11:30:26;9.95;;;7.90;;
10711;SDS011;5407;51.234;6.804;2023-03-03T11:33:00;10.52;;;7.55;;
10711;SDS011;5407;51.234;6.804;2023-03-03T11:35:33;10.38;;;7.40;;
10711;SDS011;5407;51.234;6.804;2023-03-03T11:38:13;8.27;;;7.28;;
10711;SDS011;5407;51.234;6.804;2023-03-03T11:40:51;7.80;;;6.82;;
10711;SDS011;5407;51.234;6.804;2023-03-03T11:43:21;9.05;;;7.50;;
10711;SDS011;5407;51.234;6.804;2023-03-03T11:45:54;9.00;;;7.45;;
10711;SDS011;5407;51.234;6.804;2023-03-03T11:48:26;10.10;;;7.45;;
10711;SDS011;5407;51.234;6.804;2023-03-03T11:51:01;8.30;;;6.80;;
10711;SDS011;5407;51.234;6.804;2023-03-03T11:53:37;10.20;;;7.20;;
10711;SDS011;5407;51.234;6.804;2023-03-03T11:56:16;8.63;;;7.28;;
10711;SDS011;5407;51.234;6.804;2023-03-03T11:58:50;8.00;;;7.05;;
10711;SDS011;5407;51.234;6.804;2023-03-03T12:01:27;9.38;;;7.07;;
10711;SDS011;5407;51.234;6.804;2023-03-03T12:04:00;8.88;;;7.07;;
10711;SDS011;5407;51.234;6.804;2023-03-03T12:06:32;10.63;;;6.80;;
10711;SDS011;5407;51.234;6.804;2023-03-03T12:09:19;10.23;;;6.57;;
10711;SDS011;5407;51.234;6.804;2023-03-03T12:11:57;8.57;;;7.40;;
10711;SDS011;5407;51.234;6.804;2023-03-03T12:14:38;11.98;;;7.72;;
10711;SDS011;5407;51.234;6.804;2023-03-03T12:17:18;7.53;;;6.80;;
10711;SDS011;5407;51.234;6.804;2023-03-03T12:20:02;8.70;;;6.43;;
10711;SDS011;5407;51.234;6.804;2023-03-03T12:22:40;10.15;;;6.93;;
10711;SDS011;5407;51.234;6.804;2023-03-03T12:25:20;9.85;;;6.72;;
10711;SDS011;5407;51.234;6.804;2023-03-03T12:27:52;9.02;;;6.40;;
10711;SDS011;5407;51.234;6.804;2023-03-03T12:30:26;9.05;;;6.95;;
10711;SDS011;5407;51.234;6.804;2023-03-03T12:33:06;7.13;;;6.40;;
10711;SDS011;5407;51.234;6.804;2023-03-03T12:35:41;7.78;;;6.80;;
10711;SDS011;5407;51.234;6.804;2023-03-03T12:38:17;9.43;;;7.20;;
10711;SDS011;5407;51.234;6.804;2023-03-03T12:40:54;7.93;;;6.65;;
10711;SDS011;5407;51.234;6.804;2023-03-03T12:43:30;7.47;;;6.57;;
10711;SDS011;5407;51.234;6.804;2023-03-03T12:46:11;7.30;;;6.38;;
10711;SDS011;5407;51.234;6.804;2023-03-03T12:48:46;7.30;;;6.15;;
10711;SDS011;5407;51.234;6.804;2023-03-03T12:51:20;7.43;;;6.25;;
10711;SDS011;5407;51.234;6.804;2023-03-03T12:57:15;6.95;;;6.10;;
10711;SDS011;5407;51.234;6.804;2023-03-03T12:59:50;7.03;;;6.20;;
10711;SDS011;5407;51.234;6.804;2023-03-03T13:05:23;6.68;;;5.93;;
10711;SDS011;5407;51.234;6.804;2023-03-03T13:07:59;6.25;;;5.63;;
10711;SDS011;5407;51.234;6.804;2023-03-03T13:10:48;7.82;;;5.72;;
10711;SDS011;5407;51.234;6.804;2023-03-03T13:13:25;8.75;;;6.35;;
10711;SDS011;5407;51.234;6.804;2023-03-03T13:15:58;6.60;;;5.90;;
10711;SDS011;5407;51.234;6.804;2023-03-03T13:18:30;8.43;;;6.32;;
10711;SDS011;5407;51.234;6.804;2023-03-03T13:21:05;6.97;;;5.97;;
10711;SDS011;5407;51.234;6.804;2023-03-03T13:23:40;7.90;;;5.75;;
10711;SDS011;5407;51.234;6.804;2023-03-03T13:26:15;6.38;;;5.72;;
10711;SDS011;5407;51.234;6.804;2023-03-03T13:28:51;7.50;;;6.30;;
10711;SDS011;5407;51.234;6.804;2023-03-03T13:31:26;8.15;;;6.43;;
10711;SDS011;5407;51.234;6.804;2023-03-03T13:33:57;5.97;;;5.30;;
10711;SDS011;5407;51.234;6.804;2023-03-03T13:36:27;8.48;;;6.22;;
10711;SDS011;5407;51.234;6.804;2023-03-03T13:38:59;12.43;;;6.43;;
10711;SDS011;5407;51.234;6.804;2023-03-03T13:41:35;8.20;;;6.20;;
10711;SDS011;5407;51.234;6.804;2023-03-03T13:44:10;8.30;;;6.50;;
10711;SDS011;5407;51.234;6.804;2023-03-03T13:46:44;7.72;;;5.90;;
10711;SDS011;5407;51.234;6.804;2023-03-03T13:49:24;6.82;;;5.63;;
10711;SDS011;5407;51.234;6.804;2023-03-03T13:52:01;8.82;;;5.70;;
10711;SDS011;5407;51.234;6.804;2023-03-03T13:54:35;6.30;;;5.35;;
10711;SDS011;5407;51.234;6.804;2023-03-03T13:57:19;7.82;;;5.97;;
10711;SDS011;5407;51.234;6.804;2023-03-03T14:00:03;6.82;;;5.40;;
10711;SDS011;5407;51.234;6.804;2023-03-03T14:02:46;6.18;;;5.45;;
10711;SDS011;5407;51.234;6.804;2023-03-03T14:05:31;6.43;;;5.72;;
10711;SDS011;5407;51.234;6.804;2023-03-03T14:08:05;7.60;;;5.93;;
10711;SDS011;5407;51.234;6.804;2023-03-03T14:10:40;7.53;;;6.30;;
10711;SDS011;5407;51.234;6.804;2023-03-03T14:13:14;7.45;;;6.10;;
10711;SDS011;5407;51.234;6.804;2023-03-03T14:15:49;7.97;;;6.38;;
10711;SDS011;5407;51.234;6.804;2023-03-03T14:18:23;6.70;;;5.82;;
10711;SDS011;5407;51.234;6.804;2023-03-03T14:20:57;6.35;;;5.75;;
10711;SDS011;5407;51.234;6.804;2023-03-03T14:23:31;6.53;;;5.85;;
10711;SDS011;5407;51.234;6.804;2023-03-03T14:26:06;6.47;;;5.88;;
10711;SDS011;5407;51.234;6.804;2023-03-03T14:28:38;7.45;;;6.20;;
10711;SDS011;5407;51.234;6.804;2023-03-03T14:31:13;7.45;;;6.15;;
10711;SDS011;5407;51.234;6.804;2023-03-03T14:33:45;6.93;;;6.22;;
10711;SDS011;5407;51.234;6.804;2023-03-03T14:36:27;6.60;;;5.50;;
10711;SDS011;5407;51.234;6.804;2023-03-03T14:38:57;6.70;;;5.97;;
10711;SDS011;5407;51.234;6.804;2023-03-03T14:41:34;7.05;;;5.88;;
10711;SDS011;5407;51.234;6.804;2023-03-03T14:44:22;6.88;;;5.65;;
10711;SDS011;5407;51.234;6.804;2023-03-03T14:47:01;6.40;;;5.72;;
10711;SDS011;5407;51.234;6.804;2023-03-03T14:49:37;6.70;;;5.03;;
10711;SDS011;5407;51.234;6.804;2023-03-03T14:52:10;6.20;;;5.60;;
10711;SDS011;5407;51.234;6.804;2023-03-03T14:54:45;7.53;;;5.78;;
10711;SDS011;5407;51.234;6.804;2023-03-03T14:57:15;6.25;;;5.65;;
10711;SDS011;5407;51.234;6.804;2023-03-03T14:59:54;6.63;;;5.78;;
10711;SDS011;5407;51.234;6.804;2023-03-03T15:02:30;6.60;;;5.45;;
10711;SDS011;5407;51.234;6.804;2023-03-03T15:05:11;5.60;;;5.03;;
10711;SDS011;5407;51.234;6.804;2023-03-03T15:07:42;6.13;;;5.15;;
10711;SDS011;5407;51.234;6.804;2023-03-03T15:10:10;5.95;;;5.07;;
10711;SDS011;5407;51.234;6.804;2023-03-03T15:12:39;5.75;;;5.00;;
10711;SDS011;5407;51.234;6.804;2023-03-03T15:15:12;5.43;;;4.90;;
10711;SDS011;5407;51.234;6.804;2023-03-03T15:17:52;5.90;;;5.15;;
10711;SDS011;5407;51.234;6.804;2023-03-03T15:23:31;6.15;;;4.78;;
10711;SDS011;5407;51.234;6.804;2023-03-03T15:26:19;4.85;;;4.35;;
10711;SDS011;5407;51.234;6.804;2023-03-03T15:28:54;5.65;;;5.07;;
10711;SDS011;5407;51.234;6.804;2023-03-03T15:31:33;5.30;;;4.80;;
10711;SDS011;5407;51.234;6.804;2023-03-03T15:34:18;5.00;;;4.50;;
10711;SDS011;5407;51.234;6.804;2023-03-03T15:36:50;4.95;;;4.45;;
10711;SDS011;5407;51.234;6.804;2023-03-03T15:39:21;4.55;;;4.15;;
10711;SDS011;5407;51.234;6.804;2023-03-03T15:41:57;4.60;;;4.15;;
10711;SDS011;5407;51.234;6.804;2023-03-03T15:44:43;4.57;;;4.15;;
10711;SDS011;5407;51.234;6.804;2023-03-03T15:47:21;4.60;;;4.20;;
10711;SDS011;5407;51.234;6.804;2023-03-03T15:50:05;4.45;;;4.05;;
10711;SDS011;5407;51.234;6.804;2023-03-03T15:52:44;5.28;;;4.40;;
10711;SDS011;5407;51.234;6.804;2023-03-03T15:55:23;4.72;;;4.32;;